Terminal Aerodrome Forecast
Issued by NWS

Home | Current Version | Previous Version | Text Only | Print | Product List | Glossary On
Versions: 1 2 3 4 5 6 7 8 9 10 11 12 13 14 15 16 17 18 19 20 21 22 23 24 25 26 27 28 29 30 31 32 33
400
FTUS41 KOKX 230215 AAB
TAFHPN
TAF AMD
KHPN 230215Z 2302/2324 VRB02KT 6SM BR OVC005
     FM230600 VRB02KT 2SM BR VCSH OVC003
      TEMPO 2307/2311 1SM BR
     FM231200 29004KT 4SM BR SCT015 BKN040
      TEMPO 2312/2314 BKN015
     FM231400 33007KT P6SM SCT020 SCT090
     FM231600 33010KT P6SM FEW040 SCT100
     FM231800 32009KT P6SM FEW050
      AMD NOT SKED=

USA.gov is the U.S. government's official web portal to all federal, state and local government web resources and services.